Time;durP1;ratioP1;P1;durP2;ratioP2;P2;SDS_P1;SDS_P2;PMS_P1;PMS_P2;Temp;Humidity;BMP_temperature;BMP_pressure;BME280_temperature;BME280_humidity;BME280_pressure;Samples;Min_cycle;Max_cycle;Signal;HPM_P1;HPM_P2
2024/01/09 00:00:16;;;;;;;10.95;5.55;;;-6.90;99.90;;;;;;4967994;28;20039;-81
2024/01/09 00:02:41;;;;;;;8.75;4.03;;;-6.80;99.90;;;;;;4967161;28;20034;-80
2024/01/09 00:05:09;;;;;;;7.95;4.30;;;-6.80;99.90;;;;;;4946848;28;20089;-80
2024/01/09 00:07:34;;;;;;;8.02;4.72;;;-6.80;99.90;;;;;;4935966;28;20038;-81
2024/01/09 00:10:00;;;;;;;9.48;4.63;;;-6.70;99.90;;;;;;4950310;28;20026;-80
2024/01/09 00:12:25;;;;;;;10.05;5.78;;;-6.90;99.90;;;;;;4949227;28;20031;-79
2024/01/09 00:14:51;;;;;;;8.63;5.00;;;-7.00;99.90;;;;;;4966248;28;20082;-82
2024/01/09 00:17:16;;;;;;;10.02;5.00;;;-7.00;99.90;;;;;;4951123;28;20031;-81
2024/01/09 00:19:42;;;;;;;8.82;4.05;;;-6.90;99.90;;;;;;4947886;28;20031;-81
2024/01/09 00:22:07;;;;;;;10.18;4.88;;;-6.80;99.90;;;;;;4948286;28;20038;-80
2024/01/09 00:24:33;;;;;;;12.25;4.50;;;-6.80;99.90;;;;;;4964769;28;20151;-81
2024/01/09 00:26:59;;;;;;;10.88;4.60;;;-6.80;99.90;;;;;;4952538;28;20023;-80
2024/01/09 00:29:24;;;;;;;10.38;4.43;;;-6.90;99.90;;;;;;4978389;28;20543;-79
2024/01/09 00:31:50;;;;;;;9.57;5.00;;;-6.80;99.90;;;;;;4947711;28;20515;-80
2024/01/09 00:34:15;;;;;;;7.55;4.03;;;-6.90;99.90;;;;;;4930487;28;20066;-81
2024/01/09 00:36:43;;;;;;;10.75;5.38;;;-6.90;99.90;;;;;;4946998;28;20072;-81
2024/01/09 00:39:09;;;;;;;7.80;4.13;;;-7.10;99.90;;;;;;4948301;28;20031;-79
2024/01/09 00:41:34;;;;;;;7.75;3.65;;;-7.00;99.90;;;;;;4946889;28;20034;-80
2024/01/09 00:44:00;;;;;;;9.25;4.38;;;-6.90;99.90;;;;;;4960661;28;20026;-80
2024/01/09 00:46:28;;;;;;;8.43;4.50;;;-7.00;99.90;;;;;;4958173;28;20458;-81
2024/01/09 00:48:54;;;;;;;14.88;4.65;;;-7.00;99.90;;;;;;4912348;28;20572;-81
2024/01/09 00:51:19;;;;;;;11.15;4.65;;;-7.00;99.90;;;;;;4962357;28;20086;-81
2024/01/09 00:53:45;;;;;;;10.25;5.00;;;-7.20;99.90;;;;;;4929337;28;20047;-82
2024/01/09 00:56:10;;;;;;;11.15;5.70;;;-7.10;99.90;;;;;;4932398;28;20030;-80
2024/01/09 00:58:36;;;;;;;7.30;4.45;;;-7.10;99.90;;;;;;4963251;28;20077;-82
2024/01/09 01:01:02;;;;;;;9.02;5.05;;;-7.10;99.90;;;;;;4958840;28;20039;-82
2024/01/09 01:03:28;;;;;;;7.72;4.55;;;-7.00;99.90;;;;;;4962509;28;20031;-82
2024/01/09 01:05:54;;;;;;;8.88;4.10;;;-7.00;99.90;;;;;;4910485;28;20531;-84
2024/01/09 01:08:21;;;;;;;6.65;4.38;;;-7.10;99.90;;;;;;4933986;28;20109;-86
2024/01/09 01:10:47;;;;;;;9.00;5.07;;;-7.10;99.90;;;;;;4915434;28;20097;-84
2024/01/09 01:13:12;;;;;;;6.55;3.88;;;-7.20;99.90;;;;;;4930587;28;20046;-85
2024/01/09 01:15:38;;;;;;;8.35;4.43;;;-7.10;99.90;;;;;;4963939;28;20085;-84
2024/01/09 01:18:03;;;;;;;9.30;4.60;;;-7.10;99.90;;;;;;4949056;28;20496;-85
2024/01/09 01:20:29;;;;;;;7.72;4.55;;;-7.20;99.90;;;;;;4932922;28;20043;-84
2024/01/09 01:22:54;;;;;;;6.57;3.58;;;-7.20;99.90;;;;;;4961015;28;20110;-84
2024/01/09 01:25:20;;;;;;;9.20;4.30;;;-7.30;99.90;;;;;;4932087;28;20366;-82
2024/01/09 01:27:46;;;;;;;7.13;4.70;;;-7.20;99.90;;;;;;4944098;28;21006;-85
2024/01/09 01:30:11;;;;;;;6.32;3.47;;;-7.10;99.90;;;;;;4961818;28;20038;-85
2024/01/09 01:32:37;;;;;;;8.25;4.32;;;-7.30;99.90;;;;;;4963255;28;20062;-85
2024/01/09 01:35:02;;;;;;;7.72;4.22;;;-7.30;99.90;;;;;;4977596;28;20030;-86
2024/01/09 01:37:28;;;;;;;8.15;3.47;;;-7.30;99.90;;;;;;4933359;28;20114;-85
2024/01/09 01:39:54;;;;;;;7.57;3.80;;;-7.30;99.90;;;;;;4943895;28;20066;-83
2024/01/09 01:42:20;;;;;;;7.15;3.92;;;-7.10;99.90;;;;;;4946570;28;20552;-85
2024/01/09 01:44:45;;;;;;;6.25;3.65;;;-7.30;99.90;;;;;;4960926;28;20066;-86
2024/01/09 01:47:11;;;;;;;7.00;3.80;;;-7.50;99.90;;;;;;4945620;28;20034;-83
2024/01/09 01:49:36;;;;;;;7.22;4.05;;;-7.40;99.90;;;;;;4946562;28;20031;-86
2024/01/09 01:52:02;;;;;;;8.10;3.17;;;-7.30;99.90;;;;;;4946773;28;20256;-86
2024/01/09 01:54:28;;;;;;;9.20;4.50;;;-7.30;99.90;;;;;;4930291;28;20623;-86
2024/01/09 01:56:53;;;;;;;7.90;4.03;;;-7.40;99.90;;;;;;4931553;28;20038;-85
2024/01/09 01:59:19;;;;;;;10.35;4.05;;;-7.30;99.90;;;;;;4932093;28;20043;-84
2024/01/09 02:01:45;;;;;;;7.00;4.10;;;-7.40;99.90;;;;;;4960919;28;20045;-84
2024/01/09 02:04:11;;;;;;;7.53;3.85;;;-7.40;99.90;;;;;;4913758;28;20102;-82
2024/01/09 02:06:37;;;;;;;8.77;3.95;;;-7.10;99.90;;;;;;4945351;28;20079;-86
2024/01/09 02:09:02;;;;;;;7.97;3.70;;;-7.20;99.90;;;;;;4928828;28;20126;-83
2024/01/09 02:11:28;;;;;;;7.32;4.10;;;-7.40;99.90;;;;;;4944894;28;20113;-82
2024/01/09 02:13:54;;;;;;;10.00;3.65;;;-7.50;99.90;;;;;;4946930;28;20500;-84
2024/01/09 02:16:19;;;;;;;7.60;3.67;;;-7.50;99.90;;;;;;4963788;28;20027;-88
2024/01/09 02:18:45;;;;;;;6.38;3.90;;;-7.40;99.90;;;;;;4932214;28;20400;-86
2024/01/09 02:21:11;;;;;;;8.23;3.75;;;-7.40;99.90;;;;;;4947136;28;20042;-84
2024/01/09 02:23:36;;;;;;;7.93;4.22;;;-7.50;99.90;;;;;;4916443;28;20049;-86
2024/01/09 02:26:02;;;;;;;8.40;4.55;;;-7.60;99.90;;;;;;4945632;28;20110;-87
2024/01/09 02:28:30;;;;;;;8.68;4.07;;;-7.60;99.90;;;;;;4912672;28;20077;-82
2024/01/09 02:30:55;;;;;;;7.93;3.78;;;-7.60;99.90;;;;;;4946557;28;20034;-85
2024/01/09 02:33:21;;;;;;;9.98;4.35;;;-7.50;99.90;;;;;;4934312;28;20061;-85
2024/01/09 02:35:46;;;;;;;8.38;4.25;;;-7.70;99.90;;;;;;4946862;28;20034;-88
2024/01/09 02:38:12;;;;;;;7.38;3.72;;;-7.60;99.90;;;;;;4936780;28;20031;-87
2024/01/09 02:40:38;;;;;;;8.52;4.40;;;-7.60;99.90;;;;;;4911113;28;20035;-89
2024/01/09 02:43:04;;;;;;;6.50;3.50;;;-7.60;99.90;;;;;;4935714;28;20094;-88
2024/01/09 02:45:30;;;;;;;6.72;3.70;;;-7.50;99.90;;;;;;4947365;28;20166;-86
2024/01/09 02:47:55;;;;;;;7.65;4.53;;;-7.50;99.90;;;;;;4946801;28;20038;-83
2024/01/09 02:50:21;;;;;;;5.28;2.42;;;-7.50;99.90;;;;;;4946248;28;20035;-89
2024/01/09 02:52:47;;;;;;;6.57;3.38;;;-7.60;99.90;;;;;;4962352;28;20051;-81
2024/01/09 02:55:12;;;;;;;7.85;3.95;;;-7.60;99.90;;;;;;4932364;28;20049;-86
2024/01/09 02:57:41;;;;;;;8.10;4.03;;;-7.60;99.90;;;;;;4929693;28;20031;-87
2024/01/09 03:00:10;;;;;;;9.23;4.20;;;-7.50;99.90;;;;;;4933421;28;20035;-93
2024/01/09 03:02:36;;;;;;;6.47;3.63;;;-7.60;99.90;;;;;;4938483;28;20476;-87
2024/01/09 03:05:03;;;;;;;8.23;4.40;;;-7.60;99.90;;;;;;4948278;28;20043;-90
2024/01/09 03:07:28;;;;;;;7.22;3.42;;;-7.50;99.90;;;;;;4936322;28;20051;-86
2024/01/09 03:09:54;;;;;;;8.55;4.57;;;-7.60;99.90;;;;;;4961851;28;20038;-82
2024/01/09 03:12:19;;;;;;;6.70;3.17;;;-7.60;99.90;;;;;;4970725;28;20033;-89
2024/01/09 03:14:45;;;;;;;8.10;4.03;;;-7.60;99.90;;;;;;4934038;28;20125;-76
2024/01/09 03:17:11;;;;;;;9.93;4.22;;;-7.60;99.90;;;;;;4957528;28;20054;-76
2024/01/09 03:19:37;;;;;;;7.13;3.70;;;-7.70;99.90;;;;;;4941505;28;20046;-77
2024/01/09 03:22:03;;;;;;;8.52;4.05;;;-7.70;99.90;;;;;;4942757;28;20019;-76
2024/01/09 03:24:28;;;;;;;6.97;3.95;;;-7.60;99.90;;;;;;4929162;28;20054;-76
2024/01/09 03:26:54;;;;;;;6.45;3.40;;;-7.70;99.90;;;;;;4944176;28;20035;-77
2024/01/09 03:29:19;;;;;;;8.90;4.63;;;-7.60;99.90;;;;;;4931793;28;20031;-77
2024/01/09 03:31:45;;;;;;;9.38;4.70;;;-7.70;99.90;;;;;;4925841;28;20035;-76
2024/01/09 03:34:10;;;;;;;9.82;5.00;;;-7.90;99.90;;;;;;4940131;28;20043;-76
2024/01/09 03:36:38;;;;;;;7.13;4.35;;;-7.80;99.90;;;;;;4959243;28;20059;-76
2024/01/09 03:39:04;;;;;;;6.80;4.07;;;-7.80;99.90;;;;;;4926826;28;20124;-76
2024/01/09 03:41:31;;;;;;;8.35;4.25;;;-7.70;99.90;;;;;;4913246;28;20031;-76
2024/01/09 03:43:57;;;;;;;7.07;3.88;;;-7.70;99.90;;;;;;4943827;28;20041;-77
2024/01/09 03:46:23;;;;;;;7.88;3.60;;;-7.90;99.90;;;;;;4959416;28;20038;-77
2024/01/09 03:48:48;;;;;;;9.85;4.03;;;-7.80;99.90;;;;;;4913673;28;20031;-77
2024/01/09 03:51:14;;;;;;;9.65;5.70;;;-7.90;99.90;;;;;;4959208;28;20039;-76
2024/01/09 03:53:39;;;;;;;9.25;5.15;;;-8.00;99.90;;;;;;4931395;28;20457;-76
2024/01/09 03:56:05;;;;;;;8.98;4.60;;;-7.90;99.90;;;;;;4944589;28;20357;-77
2024/01/09 03:58:31;;;;;;;8.82;4.20;;;-7.90;99.90;;;;;;4942749;28;20038;-76
2024/01/09 04:00:56;;;;;;;12.45;4.50;;;-7.80;99.90;;;;;;4944334;28;20026;-76
2024/01/09 04:03:22;;;;;;;11.90;3.58;;;-7.80;99.90;;;;;;4961042;28;20161;-77
2024/01/09 04:05:48;;;;;;;9.13;4.35;;;-7.80;99.90;;;;;;4931202;28;20393;-87
2024/01/09 04:08:14;;;;;;;11.32;4.63;;;-7.80;99.90;;;;;;4927114;28;20046;-84
2024/01/09 04:10:40;;;;;;;8.38;4.03;;;-7.80;99.90;;;;;;4942766;28;20097;-86
2024/01/09 04:13:05;;;;;;;10.32;4.50;;;-7.80;99.90;;;;;;4930887;28;20401;-76
2024/01/09 04:15:32;;;;;;;7.82;3.95;;;-7.80;99.90;;;;;;4961016;28;20493;-76
2024/01/09 04:17:58;;;;;;;10.55;5.00;;;-7.90;99.90;;;;;;4930482;28;20038;-78
2024/01/09 04:20:23;;;;;;;11.50;4.38;;;-7.90;99.90;;;;;;4948103;28;20078;-76
2024/01/09 04:22:49;;;;;;;8.40;3.95;;;-7.90;99.90;;;;;;4942323;28;20055;-77
2024/01/09 04:25:14;;;;;;;12.98;4.97;;;-7.80;99.90;;;;;;4923931;28;20045;-76
2024/01/09 04:27:40;;;;;;;8.88;4.53;;;-7.80;99.90;;;;;;4931150;28;20043;-77
2024/01/09 04:30:06;;;;;;;8.77;4.10;;;-7.80;99.90;;;;;;4960951;28;20081;-77
2024/01/09 04:32:32;;;;;;;9.65;5.30;;;-7.90;99.90;;;;;;4960622;28;20034;-77
2024/01/09 04:34:57;;;;;;;9.68;5.85;;;-7.90;99.90;;;;;;4964027;28;20975;-77
2024/01/09 04:37:23;;;;;;;11.18;5.65;;;-8.00;99.90;;;;;;4945885;28;20038;-77
2024/01/09 04:39:49;;;;;;;9.80;4.38;;;-8.00;99.90;;;;;;4930129;28;21316;-76
2024/01/09 04:42:15;;;;;;;9.70;4.97;;;-7.90;99.90;;;;;;4932660;28;20035;-77
2024/01/09 04:44:40;;;;;;;14.40;5.22;;;-7.80;99.90;;;;;;4947630;28;20034;-77
2024/01/09 04:47:06;;;;;;;10.32;5.18;;;-7.80;99.90;;;;;;4946546;28;20073;-76
2024/01/09 04:49:31;;;;;;;10.45;5.32;;;-7.70;99.90;;;;;;4959102;28;20086;-77
2024/01/09 04:51:57;;;;;;;10.32;5.50;;;-7.80;99.90;;;;;;4961611;28;20059;-77
2024/01/09 04:54:22;;;;;;;8.05;4.90;;;-7.80;99.90;;;;;;4940652;28;20038;-77
2024/01/09 04:56:48;;;;;;;10.30;5.78;;;-7.80;99.90;;;;;;4931592;28;20446;-76
2024/01/09 04:59:13;;;;;;;11.52;4.18;;;-7.80;99.90;;;;;;4912564;28;20106;-77
2024/01/09 05:01:39;;;;;;;11.27;4.82;;;-7.80;99.90;;;;;;4911827;28;20051;-76
2024/01/09 05:04:04;;;;;;;11.75;5.70;;;-7.70;99.90;;;;;;4944029;28;20077;-78
2024/01/09 05:06:30;;;;;;;12.45;4.35;;;-8.00;99.90;;;;;;4961979;28;20027;-77
2024/01/09 05:08:55;;;;;;;14.65;5.70;;;-7.90;99.90;;;;;;4947825;28;20890;-77
2024/01/09 05:11:21;;;;;;;11.70;5.07;;;-8.00;99.90;;;;;;4907196;28;20035;-77
2024/01/09 05:13:47;;;;;;;9.40;4.80;;;-8.10;99.90;;;;;;4943446;28;20035;-77
2024/01/09 05:16:12;;;;;;;10.68;5.40;;;-8.10;99.90;;;;;;4914054;28;20101;-77
2024/01/09 05:18:38;;;;;;;9.18;5.25;;;-8.00;99.90;;;;;;4946715;28;20037;-77
2024/01/09 05:21:04;;;;;;;9.10;4.55;;;-8.00;99.90;;;;;;4942621;28;20448;-78
2024/01/09 05:23:29;;;;;;;10.68;5.15;;;-8.00;99.90;;;;;;4931019;28;20039;-78
2024/01/09 05:25:55;;;;;;;9.88;4.55;;;-8.00;99.90;;;;;;4944765;28;20042;-77
2024/01/09 05:28:21;;;;;;;12.98;4.97;;;-8.00;99.90;;;;;;4930011;28;20529;-77
2024/01/09 05:30:47;;;;;;;11.68;4.03;;;-8.10;99.90;;;;;;4933102;28;20039;-77
2024/01/09 05:33:12;;;;;;;8.60;5.25;;;-8.10;99.90;;;;;;4960074;28;20532;-77
2024/01/09 05:35:38;;;;;;;8.60;4.97;;;-8.20;99.90;;;;;;4961170;28;20654;-77
2024/01/09 05:38:03;;;;;;;14.55;5.50;;;-8.20;99.90;;;;;;4944054;28;20031;-77
2024/01/09 05:40:29;;;;;;;12.13;5.10;;;-8.20;99.90;;;;;;4959991;28;20030;-77
2024/01/09 05:42:56;;;;;;;12.18;6.43;;;-8.10;99.90;;;;;;4928529;28;20045;-77
2024/01/09 05:45:21;;;;;;;10.50;4.43;;;-8.10;99.90;;;;;;4928280;28;20035;-77
2024/01/09 05:47:47;;;;;;;11.55;4.90;;;-8.10;99.90;;;;;;4910961;28;20849;-77
2024/01/09 05:50:13;;;;;;;11.32;5.20;;;-7.90;99.90;;;;;;4927069;28;20015;-78
2024/01/09 05:52:38;;;;;;;14.32;6.57;;;-8.00;99.90;;;;;;4907991;28;20031;-78
2024/01/09 05:55:06;;;;;;;12.68;5.70;;;-8.20;99.90;;;;;;4958711;28;20031;-77
2024/01/09 05:57:32;;;;;;;9.98;4.78;;;-8.20;99.90;;;;;;4958844;28;20039;-77
2024/01/09 05:59:57;;;;;;;10.88;5.05;;;-8.10;99.90;;;;;;4931101;28;20050;-77
2024/01/09 06:02:23;;;;;;;10.80;6.07;;;-8.20;99.90;;;;;;4924702;28;20035;-77
2024/01/09 06:04:49;;;;;;;13.57;6.43;;;-8.30;99.90;;;;;;4942447;28;20041;-77
2024/01/09 06:07:15;;;;;;;10.65;6.18;;;-8.40;99.90;;;;;;4943774;28;20432;-78
2024/01/09 06:09:41;;;;;;;12.55;7.25;;;-8.30;99.90;;;;;;4939475;28;20035;-78
2024/01/09 06:12:07;;;;;;;10.73;5.97;;;-8.40;99.90;;;;;;4944257;28;20029;-78
2024/01/09 06:14:32;;;;;;;8.85;4.20;;;-8.30;99.90;;;;;;4960389;28;20281;-78
2024/01/09 06:16:58;;;;;;;12.98;6.70;;;-8.30;99.90;;;;;;4942715;28;20123;-77
2024/01/09 06:19:23;;;;;;;15.25;7.20;;;-8.30;99.90;;;;;;4941165;28;20031;-78
2024/01/09 06:21:49;;;;;;;9.75;5.05;;;-8.40;99.90;;;;;;4929706;28;20105;-78
2024/01/09 06:24:15;;;;;;;10.38;5.05;;;-8.40;99.90;;;;;;4930384;28;20465;-78
2024/01/09 06:26:40;;;;;;;10.77;5.50;;;-8.20;99.90;;;;;;4959478;28;20493;-78
2024/01/09 06:29:06;;;;;;;8.85;5.00;;;-8.10;99.90;;;;;;4957939;28;20023;-77
2024/01/09 06:31:32;;;;;;;12.73;5.22;;;-8.30;99.90;;;;;;4943600;28;20038;-80
2024/01/09 06:33:58;;;;;;;11.50;5.75;;;-8.30;99.90;;;;;;4940149;28;20201;-81
2024/01/09 06:36:23;;;;;;;14.70;6.15;;;-8.30;99.90;;;;;;4929980;28;20493;-81
2024/01/09 06:38:49;;;;;;;11.55;5.90;;;-8.10;99.90;;;;;;4944453;28;20069;-81
2024/01/09 06:41:14;;;;;;;10.05;5.65;;;-8.20;99.90;;;;;;4945286;28;20114;-82
2024/01/09 06:43:40;;;;;;;13.15;5.75;;;-8.30;99.90;;;;;;4946684;28;20051;-80
2024/01/09 06:46:06;;;;;;;10.77;6.47;;;-8.40;99.90;;;;;;4956996;28;20034;-79
2024/01/09 06:48:31;;;;;;;11.43;5.55;;;-8.40;99.90;;;;;;4928391;28;20799;-79
2024/01/09 06:50:57;;;;;;;12.57;5.47;;;-8.30;99.90;;;;;;4913732;28;20507;-79
2024/01/09 06:53:22;;;;;;;12.88;5.65;;;-8.00;99.90;;;;;;4909723;28;20039;-79
2024/01/09 06:55:48;;;;;;;17.05;6.88;;;-8.00;99.90;;;;;;4926557;28;20446;-78
2024/01/09 06:58:16;;;;;;;11.13;5.38;;;-8.30;99.90;;;;;;4929068;28;20035;-79
2024/01/09 07:00:41;;;;;;;11.32;5.82;;;-8.20;99.90;;;;;;4943078;28;20027;-79
2024/01/09 07:03:07;;;;;;;12.95;6.45;;;-8.30;99.90;;;;;;4958499;28;20038;-79
2024/01/09 07:05:33;;;;;;;14.52;5.80;;;-8.30;99.90;;;;;;4956391;28;20035;-78
2024/01/09 07:07:58;;;;;;;12.98;6.32;;;-8.20;99.90;;;;;;4929366;28;20035;-81
2024/01/09 07:10:24;;;;;;;10.30;6.03;;;-8.30;99.90;;;;;;4909458;28;20036;-79
2024/01/09 07:12:49;;;;;;;12.77;7.25;;;-8.30;99.90;;;;;;4927211;28;20027;-80
2024/01/09 07:15:15;;;;;;;11.93;7.05;;;-8.40;99.90;;;;;;4944281;28;20073;-80
2024/01/09 07:17:41;;;;;;;10.52;6.47;;;-8.50;99.90;;;;;;4959380;28;20031;-81
2024/01/09 07:20:07;;;;;;;9.75;5.85;;;-8.40;99.90;;;;;;4923328;28;20105;-80
2024/01/09 07:22:33;;;;;;;15.80;6.93;;;-8.50;99.90;;;;;;4914385;28;20027;-79
2024/01/09 07:24:58;;;;;;;13.68;6.82;;;-8.40;99.90;;;;;;4925551;28;20121;-82
2024/01/09 07:27:24;;;;;;;8.98;5.10;;;-8.50;99.90;;;;;;4908198;28;20031;-80
2024/01/09 07:29:49;;;;;;;12.60;5.60;;;-8.50;99.90;;;;;;4925502;28;20033;-79
2024/01/09 07:32:15;;;;;;;14.68;5.63;;;-8.30;99.90;;;;;;4944324;28;20643;-79
2024/01/09 07:34:40;;;;;;;17.33;6.68;;;-8.40;99.90;;;;;;4940611;28;20516;-79
2024/01/09 07:37:06;;;;;;;13.20;7.25;;;-8.60;99.90;;;;;;4943386;28;20563;-79
2024/01/09 07:39:32;;;;;;;16.67;7.25;;;-8.50;99.90;;;;;;4962122;28;20038;-79
2024/01/09 07:41:58;;;;;;;11.27;6.25;;;-8.60;99.90;;;;;;4929133;28;20378;-77
2024/01/09 07:44:24;;;;;;;13.35;8.48;;;-8.50;99.90;;;;;;4924633;28;20043;-77
2024/01/09 07:46:50;;;;;;;13.25;6.10;;;-8.60;99.90;;;;;;4926686;28;20729;-78
2024/01/09 07:49:15;;;;;;;13.55;7.00;;;-8.50;99.90;;;;;;4946167;28;20035;-77
2024/01/09 07:51:41;;;;;;;11.27;6.95;;;-8.60;99.90;;;;;;4943733;28;20405;-78
2024/01/09 07:54:06;;;;;;;15.48;5.82;;;-8.60;99.90;;;;;;4927681;28;20066;-78
2024/01/09 07:56:32;;;;;;;14.73;7.85;;;-8.40;99.90;;;;;;4935256;28;20093;-78
2024/01/09 07:58:57;;;;;;;14.68;8.05;;;-8.60;99.90;;;;;;4915829;28;20463;-78
2024/01/09 08:01:24;;;;;;;13.48;6.93;;;-8.40;99.90;;;;;;4935420;28;20043;-78
2024/01/09 08:03:50;;;;;;;12.93;5.88;;;-8.30;99.90;;;;;;4959951;28;20500;-79
2024/01/09 08:06:16;;;;;;;11.88;7.05;;;-8.40;99.90;;;;;;4913088;28;20023;-78
2024/01/09 08:08:41;;;;;;;12.02;6.80;;;-8.50;99.90;;;;;;4945330;28;20047;-78
2024/01/09 08:11:07;;;;;;;13.10;6.72;;;-8.40;99.90;;;;;;4943515;28;20031;-79
2024/01/09 08:13:33;;;;;;;12.75;7.38;;;-8.30;99.90;;;;;;4963482;28;20074;-79
2024/01/09 08:15:59;;;;;;;14.63;7.00;;;-8.40;99.90;;;;;;4933794;28;20496;-80
2024/01/09 08:18:24;;;;;;;14.32;6.32;;;-8.30;99.90;;;;;;4948333;28;20034;-80
2024/01/09 08:20:50;;;;;;;14.82;7.82;;;-8.30;99.90;;;;;;4931168;28;20121;-79
2024/01/09 08:23:16;;;;;;;13.77;7.00;;;-8.20;99.90;;;;;;4931338;28;20023;-79
2024/01/09 08:25:42;;;;;;;13.02;6.38;;;-8.20;99.90;;;;;;4929986;28;20109;-78
2024/01/09 08:28:08;;;;;;;12.73;7.45;;;-8.20;99.90;;;;;;4941782;28;20396;-78
2024/01/09 08:30:34;;;;;;;18.90;7.28;;;-8.20;99.90;;;;;;4945090;28;20046;-78
2024/01/09 08:32:59;;;;;;;12.90;7.63;;;-8.10;99.90;;;;;;4962038;28;20034;-78
2024/01/09 08:35:25;;;;;;;12.13;7.80;;;-8.10;99.90;;;;;;4959974;28;20082;-79
2024/01/09 08:37:50;;;;;;;11.98;6.80;;;-8.10;99.90;;;;;;4941892;28;20047;-79
2024/01/09 08:40:16;;;;;;;12.23;7.18;;;-8.00;99.90;;;;;;4947504;28;20018;-78
2024/01/09 08:42:41;;;;;;;10.85;6.13;;;-8.20;99.90;;;;;;4935412;28;20831;-79
2024/01/09 08:45:08;;;;;;;13.45;7.30;;;-7.90;99.90;;;;;;4945932;28;20450;-79
2024/01/09 08:47:35;;;;;;;14.90;6.35;;;-8.00;99.90;;;;;;4947014;28;20031;-79
2024/01/09 08:50:01;;;;;;;13.90;6.30;;;-7.70;99.90;;;;;;4960326;28;20467;-79
2024/01/09 08:52:27;;;;;;;13.50;6.40;;;-7.70;99.90;;;;;;4932924;28;20038;-79
2024/01/09 08:54:53;;;;;;;13.98;6.78;;;-7.70;99.90;;;;;;4957756;28;20043;-79
2024/01/09 08:57:22;;;;;;;16.02;7.90;;;-7.70;99.90;;;;;;4942180;28;20126;-79
2024/01/09 08:59:48;;;;;;;13.75;7.03;;;-7.60;99.90;;;;;;4946296;28;20039;-79
2024/01/09 09:02:13;;;;;;;9.80;5.68;;;-7.40;99.90;;;;;;4945910;28;20693;-79
2024/01/09 09:04:39;;;;;;;15.20;7.68;;;-7.40;99.90;;;;;;4911849;28;20490;-80
2024/01/09 09:07:04;;;;;;;12.38;7.00;;;-7.30;99.90;;;;;;4961731;28;20030;-81
2024/01/09 09:09:30;;;;;;;15.75;6.88;;;-7.30;99.90;;;;;;4928206;28;20050;-79
2024/01/09 09:11:58;;;;;;;13.52;7.95;;;-7.40;99.90;;;;;;4960970;28;20038;-80
2024/01/09 09:14:24;;;;;;;9.45;5.22;;;-7.40;99.90;;;;;;4960863;28;20034;-80
2024/01/09 09:16:50;;;;;;;13.40;6.80;;;-7.30;99.90;;;;;;4930914;28;20042;-80
2024/01/09 09:19:17;;;;;;;13.52;6.38;;;-6.90;99.90;;;;;;4916239;28;20125;-80
2024/01/09 09:21:43;;;;;;;14.07;7.03;;;-7.30;99.90;;;;;;4943151;28;20038;-80
2024/01/09 09:24:09;;;;;;;15.35;6.32;;;-7.20;99.90;;;;;;4945465;28;20026;-79
2024/01/09 09:26:35;;;;;;;13.70;6.68;;;-7.20;99.90;;;;;;4930066;28;20501;-80
2024/01/09 09:29:01;;;;;;;14.32;6.97;;;-6.80;99.90;;;;;;4960351;28;20624;-80
2024/01/09 09:31:27;;;;;;;15.07;7.07;;;-6.90;99.90;;;;;;4945604;28;20110;-81
2024/01/09 09:33:52;;;;;;;13.18;5.90;;;-7.00;99.90;;;;;;4930120;28;20260;-80
2024/01/09 09:36:18;;;;;;;11.45;6.03;;;-6.90;99.90;;;;;;4958288;28;20123;-79
2024/01/09 09:38:44;;;;;;;15.55;6.32;;;-6.70;99.90;;;;;;4930040;28;20039;-79
2024/01/09 09:41:14;;;;;;;11.85;5.75;;;-6.50;99.90;;;;;;4941085;28;20437;-79
2024/01/09 09:43:40;;;;;;;16.20;6.47;;;-6.20;99.90;;;;;;4926912;28;20692;-79
2024/01/09 09:46:05;;;;;;;13.82;7.30;;;-6.20;99.90;;;;;;4932486;28;20058;-78
2024/01/09 09:48:31;;;;;;;11.93;6.25;;;-6.50;99.90;;;;;;4931026;28;20527;-78
2024/01/09 09:50:57;;;;;;;12.60;6.05;;;-6.10;99.90;;;;;;4948059;28;20512;-78
2024/01/09 09:53:24;;;;;;;12.30;6.25;;;-6.20;99.90;;;;;;4959843;28;20060;-80
2024/01/09 09:55:50;;;;;;;13.00;7.15;;;-6.20;99.90;;;;;;4930214;28;20071;-79
2024/01/09 09:58:16;;;;;;;11.93;6.32;;;-6.30;99.90;;;;;;4945988;28;20150;-80
2024/01/09 10:00:43;;;;;;;11.23;5.13;;;-6.50;99.90;;;;;;4941695;28;20122;-80
2024/01/09 10:03:08;;;;;;;11.27;4.90;;;-6.40;99.90;;;;;;4928205;28;20031;-78
2024/01/09 10:05:38;;;;;;;12.10;6.00;;;-6.30;99.90;;;;;;4929585;28;20515;-78
2024/01/09 10:08:04;;;;;;;12.00;6.35;;;-6.00;99.90;;;;;;4931492;28;20061;-78
2024/01/09 10:10:29;;;;;;;14.35;6.03;;;-6.10;99.90;;;;;;4959119;28;20476;-79
2024/01/09 10:12:57;;;;;;;10.00;5.85;;;-5.70;99.90;;;;;;4930280;28;20101;-80
2024/01/09 10:15:23;;;;;;;11.00;5.88;;;-5.90;99.90;;;;;;4928990;28;20706;-79
2024/01/09 10:17:48;;;;;;;13.35;6.10;;;-6.00;99.90;;;;;;4939382;28;20042;-80
2024/01/09 10:20:15;;;;;;;11.18;5.53;;;-6.00;99.90;;;;;;4930007;28;20031;-80
2024/01/09 10:22:40;;;;;;;11.55;5.63;;;-5.90;99.90;;;;;;4959071;28;20041;-80
2024/01/09 10:25:07;;;;;;;13.70;5.82;;;-5.70;99.90;;;;;;4946288;28;20106;-80
2024/01/09 10:27:34;;;;;;;8.85;5.28;;;-5.70;99.90;;;;;;4961287;28;20440;-82
2024/01/09 10:30:00;;;;;;;14.07;5.93;;;-5.60;99.90;;;;;;4914609;28;20048;-80
2024/01/09 10:32:26;;;;;;;12.65;6.00;;;-5.60;99.90;;;;;;4945267;28;20567;-81
2024/01/09 10:34:51;;;;;;;19.17;4.85;;;-5.20;99.90;;;;;;4908621;28;20046;-82
2024/01/09 10:37:17;;;;;;;14.48;4.95;;;-4.80;99.90;;;;;;4943399;28;20042;-85
2024/01/09 10:39:47;;;;;;;7.45;4.88;;;-4.80;99.90;;;;;;4928589;28;20031;-82
2024/01/09 10:42:12;;;;;;;13.15;4.90;;;-4.90;99.90;;;;;;4909146;28;20147;-81
2024/01/09 10:44:41;;;;;;;9.63;3.90;;;-4.70;99.90;;;;;;4911197;28;20126;-82
2024/01/09 10:47:10;;;;;;;12.45;5.85;;;-4.50;99.90;;;;;;4947255;28;20045;-82
2024/01/09 10:49:38;;;;;;;7.50;4.50;;;-4.80;99.90;;;;;;4932049;28;20035;-83
2024/01/09 10:52:04;;;;;;;9.60;4.85;;;-5.10;99.90;;;;;;4925380;28;20110;-85
2024/01/09 10:54:29;;;;;;;8.90;5.53;;;-4.70;99.90;;;;;;4927588;28;20453;-81
2024/01/09 10:56:55;;;;;;;13.63;6.38;;;-4.80;99.90;;;;;;4914159;28;20505;-81
2024/01/09 10:59:20;;;;;;;15.65;7.50;;;-4.90;99.90;;;;;;4910036;28;20034;-82
2024/01/09 11:01:46;;;;;;;16.58;7.82;;;-5.10;99.90;;;;;;4928681;28;20031;-79
2024/01/09 11:04:11;;;;;;;20.10;8.98;;;-4.60;99.90;;;;;;4960061;28;20054;-82
2024/01/09 11:06:37;;;;;;;24.05;8.82;;;-4.20;99.90;;;;;;4960484;28;20078;-82
2024/01/09 11:09:04;;;;;;;23.85;8.90;;;-4.10;99.90;;;;;;4929339;28;20516;-81
2024/01/09 11:11:33;;;;;;;30.77;12.98;;;-3.70;99.90;;;;;;4929196;28;20445;-82
2024/01/09 11:14:00;;;;;;;34.35;15.45;;;-4.00;99.90;;;;;;4959436;28;20051;-81
2024/01/09 11:16:26;;;;;;;35.75;17.40;;;-3.70;99.90;;;;;;4929405;28;20093;-82
2024/01/09 11:18:52;;;;;;;32.22;12.70;;;-4.00;99.90;;;;;;4925924;28;20040;-83
2024/01/09 11:21:22;;;;;;;16.45;7.72;;;-3.90;99.90;;;;;;4913575;28;20445;-82
2024/01/09 11:23:52;;;;;;;20.65;10.15;;;-3.00;99.90;;;;;;4958155;28;20501;-81
2024/01/09 11:26:19;;;;;;;18.08;9.90;;;-3.20;99.90;;;;;;4940114;28;20552;-82
2024/01/09 11:28:47;;;;;;;19.27;9.88;;;-3.40;99.90;;;;;;4940440;28;20032;-82
2024/01/09 11:31:20;;;;;;;22.85;10.70;;;-3.80;99.90;;;;;;4965410;28;20023;-81
2024/01/09 11:33:49;;;;;;;20.55;10.95;;;-3.80;99.90;;;;;;4945418;28;20047;-83
2024/01/09 11:36:34;;;;;;;20.55;10.75;;;-3.80;99.90;;;;;;4965992;28;20155;-79
2024/01/09 11:39:00;;;;;;;17.60;9.30;;;-4.00;99.90;;;;;;4927118;28;20049;-80
2024/01/09 11:41:33;;;;;;;18.45;9.75;;;-4.20;99.90;;;;;;4945942;28;20035;-82
2024/01/09 11:44:03;;;;;;;18.08;9.45;;;-4.00;99.90;;;;;;4933396;28;20035;-83
2024/01/09 11:46:35;;;;;;;17.48;8.95;;;-4.10;99.90;;;;;;4964593;28;20030;-80
2024/01/09 11:49:00;;;;;;;13.25;7.80;;;-3.90;99.90;;;;;;4930971;28;20046;-80
2024/01/09 11:51:26;;;;;;;13.55;7.05;;;-3.60;99.90;;;;;;4932587;28;20027;-77
2024/01/09 11:53:51;;;;;;;11.07;5.45;;;-3.70;99.90;;;;;;4931665;28;20043;-77
2024/01/09 11:56:18;;;;;;;9.00;5.47;;;-3.50;99.90;;;;;;4948331;28;20030;-77
2024/01/09 11:58:44;;;;;;;10.65;5.40;;;-3.70;99.90;;;;;;4947756;28;20110;-76
2024/01/09 12:01:10;;;;;;;8.43;5.03;;;-3.60;99.90;;;;;;4962503;28;20042;-76
2024/01/09 12:03:35;;;;;;;12.70;6.38;;;-3.50;99.90;;;;;;4934668;28;20035;-76
2024/01/09 12:06:01;;;;;;;11.68;6.47;;;-3.30;99.90;;;;;;4964720;28;20043;-76
2024/01/09 12:08:28;;;;;;;12.65;6.82;;;-3.60;99.90;;;;;;4930460;28;20588;-77
2024/01/09 12:10:54;;;;;;;16.60;7.18;;;-3.60;99.90;;;;;;4904810;28;20031;-76
2024/01/09 12:13:20;;;;;;;14.80;5.97;;;-3.40;99.90;;;;;;4935333;28;20058;-77
2024/01/09 12:15:46;;;;;;;13.95;7.45;;;-3.40;99.90;;;;;;4905303;28;20552;-76
2024/01/09 12:18:12;;;;;;;12.60;6.15;;;-3.30;99.90;;;;;;4968197;28;20038;-77
2024/01/09 12:20:41;;;;;;;15.18;7.50;;;-3.60;99.90;;;;;;4946599;28;20027;-76
2024/01/09 12:23:07;;;;;;;11.85;5.63;;;-3.70;99.90;;;;;;4919022;28;20038;-77
2024/01/09 12:25:32;;;;;;;12.98;5.40;;;-3.40;99.90;;;;;;4948193;28;20390;-79
2024/01/09 12:27:58;;;;;;;16.70;7.40;;;-3.30;99.90;;;;;;4913270;28;20046;-78
2024/01/09 12:30:24;;;;;;;12.30;6.20;;;-3.50;99.90;;;;;;4935508;28;20026;-77
2024/01/09 12:32:50;;;;;;;14.23;7.90;;;-3.20;99.90;;;;;;4913510;28;20720;-76